createdAt,value
2016-08-11T00:02:04.055Z,44.3
2016-08-11T00:07:03.583Z,44.4
2016-08-11T00:12:04.167Z,44.4
2016-08-11T00:17:03.737Z,44.5
2016-08-11T00:22:04.139Z,44.3
2016-08-11T00:27:03.447Z,44.4
2016-08-11T00:32:04.183Z,44.4
2016-08-11T00:37:04.015Z,44.3
2016-08-11T00:42:03.379Z,44.3
2016-08-11T00:47:03.888Z,44.5
2016-08-11T00:52:04.211Z,44.5
2016-08-11T00:57:03.962Z,44.4
2016-08-11T01:02:03.783Z,44.5
2016-08-11T01:07:03.599Z,44.6
2016-08-11T01:12:04.137Z,44.4
2016-08-11T01:17:03.890Z,44.4
2016-08-11T01:22:03.720Z,44.5
2016-08-11T01:27:03.976Z,44.4
2016-08-11T01:32:03.441Z,44.4
2016-08-11T01:37:04.384Z,44.3
2016-08-11T01:42:03.810Z,44.3
2016-08-11T01:47:04.244Z,44.5
2016-08-11T01:52:03.607Z,44.4
2016-08-11T01:57:03.821Z,44.4
2016-08-11T02:02:03.548Z,44.4
2016-08-11T02:07:03.847Z,44.4
2016-08-11T02:12:04.356Z,44.4
2016-08-11T02:17:03.727Z,44.2
2016-08-11T02:22:04.024Z,44.2
2016-08-11T02:27:04.317Z,44.3
2016-08-11T02:32:03.851Z,44.9
2016-08-11T02:37:04.411Z,44.4
2016-08-11T02:42:03.576Z,44.3
2016-08-11T02:47:03.781Z,44.1
2016-08-11T02:52:03.788Z,44.0
2016-08-11T02:57:04.049Z,44.0
2016-08-11T03:02:04.403Z,44.0
2016-08-11T03:07:03.620Z,43.8
2016-08-11T03:12:03.858Z,43.8
2016-08-11T03:17:04.163Z,43.9
2016-08-11T03:22:04.214Z,43.9
2016-08-11T03:27:04.392Z,43.9
2016-08-11T03:32:04.067Z,44.0
2016-08-11T03:37:03.711Z,44.0
2016-08-11T03:42:03.716Z,44.0
2016-08-11T03:47:25.683Z,44.0
2016-08-11T03:52:03.423Z,43.9
2016-08-11T03:57:03.479Z,43.9
2016-08-11T04:02:31.498Z,43.9
2016-08-11T04:07:03.721Z,43.9
2016-08-11T04:12:04.144Z,43.9
2016-08-11T04:17:35.261Z,43.9
2016-08-11T04:22:03.542Z,43.9
2016-08-11T04:27:03.967Z,43.8
2016-08-11T04:32:33.850Z,43.8
2016-08-11T04:37:03.416Z,43.5
2016-08-11T04:42:03.550Z,43.5
2016-08-11T04:47:35.310Z,43.6
2016-08-11T04:52:04.115Z,43.5
2016-08-11T04:57:03.879Z,43.3
2016-08-11T05:02:34.094Z,43.2
2016-08-11T05:07:05.739Z,42.9
2016-08-11T05:12:05.515Z,43.1
2016-08-11T05:17:31.732Z,43.0
2016-08-11T05:22:04.348Z,43.0
2016-08-11T05:27:04.405Z,42.7
2016-08-11T05:32:36.287Z,42.7
2016-08-11T05:37:04.115Z,42.8
2016-08-11T05:42:03.442Z,42.7
2016-08-11T05:47:36.262Z,42.7
2016-08-11T05:52:03.738Z,42.6
2016-08-11T05:57:03.751Z,42.5
2016-08-11T06:02:32.829Z,42.6
2016-08-11T06:07:04.102Z,42.7
2016-08-11T06:12:05.448Z,42.8
2016-08-11T06:17:32.138Z,43.0
2016-08-11T06:22:04.071Z,43.0
2016-08-11T06:27:03.627Z,42.7
2016-08-11T06:32:31.231Z,42.7
2016-08-11T06:37:04.078Z,42.7
2016-08-11T06:42:03.811Z,42.6
2016-08-11T06:47:31.804Z,42.4
2016-08-11T06:52:03.889Z,42.5
2016-08-11T06:57:04.259Z,42.8
2016-08-11T07:02:37.108Z,42.9
2016-08-11T07:07:05.024Z,42.7
2016-08-11T07:12:03.827Z,42.7
2016-08-11T07:17:32.029Z,42.7
2016-08-11T07:22:03.721Z,42.8
2016-08-11T07:27:03.607Z,42.7
2016-08-11T07:32:35.031Z,43.0
2016-08-11T07:37:04.211Z,42.8
2016-08-11T07:42:04.212Z,42.8
2016-08-11T07:47:37.342Z,42.9
2016-08-11T07:52:04.260Z,42.9
2016-08-11T07:57:03.998Z,42.8
2016-08-11T08:02:37.591Z,42.7
2016-08-11T08:07:03.977Z,42.6
2016-08-11T08:12:04.390Z,42.6
2016-08-11T08:17:32.513Z,42.9
2016-08-11T08:22:04.112Z,42.9
2016-08-11T08:27:04.397Z,42.7
2016-08-11T08:32:37.700Z,42.7
2016-08-11T08:37:03.896Z,42.6
2016-08-11T08:42:04.241Z,42.5
2016-08-11T08:47:34.283Z,42.4
2016-08-11T08:52:03.875Z,42.3
2016-08-11T08:57:03.486Z,41.9
2016-08-11T09:02:35.533Z,41.9
2016-08-11T09:07:04.379Z,42.5
2016-08-11T09:12:04.184Z,42.4
2016-08-11T09:17:38.244Z,41.9
2016-08-11T09:22:03.995Z,41.3
2016-08-11T09:27:04.264Z,41.1
2016-08-11T09:32:38.609Z,41.1
2016-08-11T09:37:03.457Z,41.2
2016-08-11T09:42:04.240Z,41.9
2016-08-11T09:47:36.703Z,41.8
2016-08-11T09:52:04.343Z,42.3
2016-08-11T09:57:03.975Z,41.8
2016-08-11T10:02:26.376Z,42.4
2016-08-11T10:07:04.150Z,43.6
2016-08-11T10:12:04.316Z,43.7
2016-08-11T10:17:40.019Z,43.8
2016-08-11T10:22:03.955Z,43.8
2016-08-11T10:27:03.788Z,43.8
2016-08-11T10:32:31.128Z,42.8
2016-08-11T10:37:04.309Z,42.9
2016-08-11T10:42:04.017Z,43.3
2016-08-11T10:47:37.307Z,43.1
2016-08-11T10:52:04.288Z,43.1
2016-08-11T10:57:04.171Z,42.3
2016-08-11T11:02:33.416Z,43.1
2016-08-11T11:07:04.239Z,42.5
2016-08-11T11:12:04.337Z,42.6
2016-08-11T11:17:32.225Z,42.9
2016-08-11T11:22:03.606Z,43.4
2016-08-11T11:27:03.847Z,43.5
2016-08-11T11:32:41.868Z,43.6
2016-08-11T11:37:04.072Z,42.8
2016-08-11T11:42:03.772Z,42.9
2016-08-11T11:47:27.643Z,43.3
2016-08-11T11:52:04.240Z,43.3
2016-08-11T11:57:04.178Z,43.3
2016-08-11T12:02:30.937Z,43.3
2016-08-11T12:07:03.940Z,43.8
2016-08-11T12:12:04.331Z,43.8
2016-08-11T12:17:37.280Z,43.5
2016-08-11T12:22:04.276Z,43.4
2016-08-11T12:27:04.371Z,43.5
2016-08-11T12:32:31.698Z,42.9
2016-08-11T12:37:04.083Z,42.5
2016-08-11T12:42:04.048Z,42.8
2016-08-11T12:47:34.860Z,43.2
2016-08-11T12:52:04.178Z,43.2
2016-08-11T12:57:03.903Z,43.3
2016-08-11T13:02:32.259Z,43.3
2016-08-11T13:07:04.192Z,42.4
2016-08-11T13:12:03.848Z,42.9
2016-08-11T13:17:33.218Z,43.2
2016-08-11T13:22:03.597Z,42.3
2016-08-11T13:27:03.723Z,42.2
2016-08-11T13:32:30.259Z,42.1
2016-08-11T13:37:04.117Z,42.1
2016-08-11T13:42:03.751Z,42.0
2016-08-11T13:47:35.754Z,42.0
2016-08-11T13:52:03.877Z,42.0
2016-08-11T13:57:04.042Z,42.0
2016-08-11T20:02:03.606Z,43.3
2016-08-11T20:07:04.413Z,43.3
2016-08-11T20:12:03.566Z,43.4
2016-08-11T20:17:05.464Z,43.5
2016-08-11T20:22:04.054Z,43.4
2016-08-11T20:27:03.842Z,43.6
2016-08-11T20:32:04.020Z,43.5
2016-08-11T20:37:03.731Z,43.5
2016-08-11T20:42:03.769Z,43.7
2016-08-11T20:47:04.396Z,44.0
2016-08-11T20:52:03.384Z,43.7
2016-08-11T20:57:03.357Z,43.9
2016-08-11T21:02:03.984Z,43.6
2016-08-11T21:07:04.155Z,43.8
2016-08-11T21:12:04.022Z,43.8
2016-08-11T21:17:04.639Z,43.9
2016-08-11T21:22:03.557Z,43.8
2016-08-11T21:27:04.343Z,43.6
2016-08-11T21:32:03.793Z,43.6
2016-08-11T21:37:03.752Z,43.5
2016-08-11T21:42:03.682Z,43.4
2016-08-11T21:47:04.124Z,43.4
2016-08-11T21:52:03.292Z,43.4
2016-08-11T21:57:04.146Z,43.6
2016-08-11T22:02:04.275Z,43.4
2016-08-11T22:07:03.838Z,43.4
2016-08-11T22:12:04.508Z,43.6
2016-08-11T22:22:04.408Z,43.2
2016-08-11T22:27:03.822Z,43.6
2016-08-11T22:32:04.404Z,43.7
2016-08-11T22:37:03.590Z,43.7
2016-08-11T22:42:03.944Z,43.8
2016-08-11T22:47:04.312Z,43.8
2016-08-11T22:52:03.912Z,43.8
2016-08-11T22:57:03.431Z,43.6
2016-08-11T23:02:03.912Z,43.7
2016-08-11T23:07:04.161Z,43.7
2016-08-11T23:12:03.395Z,43.7
2016-08-11T23:17:04.102Z,43.6
2016-08-11T23:22:03.622Z,43.7
2016-08-11T23:27:04.066Z,43.7
2016-08-11T23:32:03.739Z,43.6
2016-08-11T23:37:03.918Z,43.4
2016-08-11T23:42:04.065Z,43.4
2016-08-11T23:47:03.507Z,43.5
2016-08-11T23:52:03.864Z,43.5
2016-08-11T23:57:04.270Z,43.3
